AerodromSadržaj METAR izveštaja
LYBEMETAR LYBE 202300Z 12007KT 3000 SN SCT006 BKN012 00/M00 Q1012 R12/2///94 NOSIG=
LYBTMETAR LYBT 202300Z 09005KT 060V120 2500 SN BR BKN007 00/00 Q1012 R12/////// NOSIG=
LYKVMETAR LYKV 202300Z 25004KT 9999 SCT017 BKN030 01/00 Q1010 NOSIG=
LYNIMETAR LYNI 202300Z 09016KT 9999 SCT040 05/00 Q1010=
LYVRMETAR LYVR 202300Z 14018G30KT CAVOK 04/M02 Q1012 NOSIG=
LYUZMETAR LYUZ 202300Z AUTO 00000KT 3600 BR -SN BKN003/// OVC018/// M02/M02 Q1006=
LYPGMETAR LYPG 202300Z 34004KT 9999 -RA FEW020 BKN033 OVC070 06/05 Q1006 NOSIG=
LYTVMETAR LYTV 202300Z VRB01KT 9999 RA FEW030 SCT040 OVC073 07/07 Q1005=

Podaci učitani u: 2018-02-20 23:24:00 UTC

METAR, TAF, AIRMET, GAMET, SIGMET

Važna napomena: MET infоrmаciје nа оvim web strаnicаmа imајu infоrmаtivni kаrаktеr, nаmenjene su isključivo vаzduhоplоvnim kоrisnicima, nе smејu sе kоristiti zа bilо kоје kоmеrciјаlnе svrhе, i nе zаmеnjuјu dоkumеntаciјu zа lеt.